createdAt,value
2018-05-05T00:00:44.425Z,13.00
2018-05-05T00:02:48.041Z,13.00
2018-05-05T00:04:51.395Z,12.90
2018-05-05T00:06:55.295Z,13.00
2018-05-05T00:08:58.916Z,13.00
2018-05-05T00:11:02.283Z,13.00
2018-05-05T00:13:07.351Z,13.00
2018-05-05T00:15:11.110Z,13.00
2018-05-05T00:17:14.437Z,13.10
2018-05-05T00:19:17.881Z,13.10
2018-05-05T00:21:21.276Z,13.10
2018-05-05T00:23:25.377Z,13.10
2018-05-05T00:25:29.314Z,13.10
2018-05-05T00:27:33.190Z,13.10
2018-05-05T00:29:37.945Z,13.00
2018-05-05T00:31:41.838Z,13.00
2018-05-05T00:33:45.961Z,13.00
2018-05-05T00:35:49.316Z,12.90
2018-05-05T00:37:52.641Z,12.90
2018-05-05T00:39:55.993Z,12.80
2018-05-05T00:41:59.336Z,12.80
2018-05-05T00:44:02.804Z,12.80
2018-05-05T00:46:07.202Z,12.70
2018-05-05T00:48:10.533Z,12.70
2018-05-05T00:50:16.731Z,12.70
2018-05-05T00:52:20.102Z,12.60
2018-05-05T00:54:35.243Z,12.60
2018-05-05T00:56:39.320Z,12.60
2018-05-05T00:58:42.703Z,12.50
2018-05-05T01:00:46.129Z,12.60
2018-05-05T01:02:49.471Z,12.50
2018-05-05T01:04:52.824Z,12.50
2018-05-05T01:06:57.571Z,12.30
2018-05-05T01:09:00.891Z,12.20
2018-05-05T01:11:04.278Z,12.10
2018-05-05T01:13:07.600Z,12.00
2018-05-05T01:15:11.985Z,11.90
2018-05-05T01:17:15.313Z,11.80
2018-05-05T01:19:18.913Z,11.90
2018-05-05T01:21:23.782Z,11.80
2018-05-05T01:23:27.112Z,11.80
2018-05-05T01:25:36.160Z,11.80
2018-05-05T01:27:39.506Z,11.80
2018-05-05T01:29:42.906Z,11.90
2018-05-05T01:31:46.242Z,11.90
2018-05-05T01:33:49.565Z,11.90
2018-05-05T01:35:52.925Z,11.90
2018-05-05T01:37:57.441Z,12.00
2018-05-05T01:40:00.825Z,12.00
2018-05-05T01:42:04.959Z,12.10
2018-05-05T01:44:08.367Z,12.10
2018-05-05T01:46:11.717Z,12.20
2018-05-05T01:48:15.105Z,12.10
2018-05-05T01:50:18.560Z,12.20
2018-05-05T01:52:21.904Z,12.10
2018-05-05T01:54:25.337Z,12.10
2018-05-05T01:56:28.768Z,12.00
2018-05-05T01:58:32.123Z,11.90
2018-05-05T02:00:37.373Z,11.70
2018-05-05T02:02:41.473Z,11.70
2018-05-05T02:04:46.637Z,11.70
2018-05-05T02:06:50.750Z,11.80
2018-05-05T02:08:55.776Z,11.80
2018-05-05T02:10:59.151Z,11.80
2018-05-05T02:13:02.481Z,11.80
2018-05-05T02:15:05.823Z,11.80
2018-05-05T02:17:09.217Z,11.80
2018-05-05T02:19:12.536Z,11.80
2018-05-05T02:21:16.815Z,11.80
2018-05-05T02:23:21.022Z,11.80
2018-05-05T02:25:24.503Z,11.80
2018-05-05T02:27:27.910Z,11.90
2018-05-05T02:29:31.379Z,11.90
2018-05-05T02:31:35.581Z,11.80
2018-05-05T02:33:38.950Z,11.80
2018-05-05T02:35:42.480Z,11.80
2018-05-05T02:37:45.858Z,11.80
2018-05-05T02:39:49.222Z,11.80
2018-05-05T02:41:52.669Z,11.80
2018-05-05T02:43:56.007Z,11.70
2018-05-05T02:46:00.398Z,11.60
2018-05-05T02:48:03.763Z,11.60
2018-05-05T02:50:07.283Z,11.50
2018-05-05T02:52:11.423Z,11.50
2018-05-05T02:54:15.521Z,11.50
2018-05-05T02:56:18.882Z,11.50
2018-05-05T02:58:22.260Z,11.50
2018-05-05T03:00:25.660Z,11.60
2018-05-05T03:02:28.971Z,11.50
2018-05-05T03:04:32.298Z,11.40
2018-05-05T03:06:36.577Z,11.40
2018-05-05T03:08:39.888Z,11.30
2018-05-05T03:10:44.204Z,11.30
2018-05-05T03:12:48.394Z,11.30
2018-05-05T03:14:51.737Z,11.30
2018-05-05T03:16:55.872Z,11.30
2018-05-05T03:18:59.224Z,11.20
2018-05-05T03:21:02.693Z,11.20
2018-05-05T03:23:06.105Z,11.20
2018-05-05T03:25:10.237Z,11.20
2018-05-05T03:27:14.435Z,11.20
2018-05-05T03:29:17.763Z,11.20
2018-05-05T03:31:21.133Z,11.20
2018-05-05T03:33:24.457Z,11.20
2018-05-05T03:35:27.965Z,11.20
2018-05-05T03:37:31.714Z,11.10
2018-05-05T03:39:35.106Z,11.10
2018-05-05T03:41:39.355Z,11.10
2018-05-05T03:43:42.725Z,11.10
2018-05-05T03:45:46.733Z,11.00
2018-05-05T03:47:50.099Z,11.00
2018-05-05T03:49:54.365Z,11.00
2018-05-05T03:51:57.743Z,11.00
2018-05-05T03:54:01.068Z,11.00
2018-05-05T03:56:05.193Z,11.00
2018-05-05T03:58:08.537Z,10.90
2018-05-05T04:00:23.842Z,10.90
2018-05-05T04:02:38.918Z,10.80
2018-05-05T04:04:53.935Z,10.70
2018-05-05T04:06:57.345Z,10.70
2018-05-05T04:09:00.665Z,10.70
2018-05-05T04:11:04.039Z,10.70
2018-05-05T04:13:07.388Z,10.70
2018-05-05T04:15:10.721Z,10.60
2018-05-05T04:17:14.087Z,10.60
2018-05-05T04:19:17.400Z,10.60
2018-05-05T04:21:20.746Z,10.70
2018-05-05T04:23:24.073Z,10.60
2018-05-05T04:25:27.408Z,10.70
2018-05-05T04:27:30.769Z,10.70
2018-05-05T04:29:34.101Z,10.70
2018-05-05T04:31:38.219Z,10.70
2018-05-05T04:33:41.555Z,10.70
2018-05-05T04:35:44.962Z,10.70
2018-05-05T04:37:48.373Z,10.60
2018-05-05T04:39:51.728Z,10.60
2018-05-05T04:41:55.119Z,10.60
2018-05-05T04:43:58.442Z,10.60
2018-05-05T04:46:02.545Z,10.70
2018-05-05T04:48:05.920Z,10.70
2018-05-05T04:50:09.309Z,10.70
2018-05-05T04:52:12.658Z,10.70
2018-05-05T04:54:16.010Z,10.70
2018-05-05T04:56:19.369Z,10.70
2018-05-05T04:58:22.700Z,10.70
2018-05-05T05:00:26.806Z,10.70
2018-05-05T05:02:30.972Z,10.80
2018-05-05T05:04:34.308Z,10.70
2018-05-05T05:06:38.506Z,10.80
2018-05-05T05:08:41.833Z,10.80
2018-05-05T05:10:45.156Z,10.80
2018-05-05T05:12:48.501Z,10.80
2018-05-05T05:14:51.849Z,10.80
2018-05-05T05:16:55.284Z,10.90
2018-05-05T05:18:58.573Z,10.90
2018-05-05T05:21:02.664Z,11.00
2018-05-05T05:23:06.076Z,11.00
2018-05-05T05:25:10.175Z,11.20
2018-05-05T05:27:13.529Z,11.20
2018-05-05T05:29:16.919Z,11.30
2018-05-05T05:31:20.349Z,11.30
2018-05-05T05:33:23.677Z,11.30
2018-05-05T05:35:27.004Z,11.30
2018-05-05T05:40:08.143Z,11.50
2018-05-05T05:42:11.633Z,11.80
2018-05-05T05:44:15.158Z,11.90
2018-05-05T05:46:18.669Z,12.00
2018-05-05T05:48:22.171Z,12.10
2018-05-05T05:50:25.632Z,12.30
2018-05-05T05:52:29.226Z,12.40
2018-05-05T05:54:32.679Z,12.50
2018-05-05T05:56:36.137Z,12.50
2018-05-05T05:58:40.395Z,12.70
2018-05-05T06:00:43.851Z,12.70
2018-05-05T06:02:48.080Z,12.90
2018-05-05T06:04:52.320Z,13.00
2018-05-05T06:06:55.749Z,12.90
2018-05-05T06:08:59.269Z,13.00
2018-05-05T06:11:02.772Z,13.00
2018-05-05T06:13:06.287Z,13.00
2018-05-05T06:15:09.714Z,13.00
2018-05-05T06:17:13.152Z,13.00
2018-05-05T06:19:17.422Z,13.10
2018-05-05T06:21:20.915Z,13.10
2018-05-05T06:23:24.411Z,13.10
2018-05-05T06:25:27.932Z,13.20
2018-05-05T06:27:31.417Z,13.20
2018-05-05T06:29:35.682Z,13.20
2018-05-05T06:31:39.177Z,13.20
2018-05-05T06:33:42.615Z,13.30
2018-05-05T06:35:46.155Z,13.40
2018-05-05T06:37:49.623Z,13.50
2018-05-05T06:39:53.874Z,13.60
2018-05-05T06:41:57.401Z,13.60
2018-05-05T06:44:00.848Z,13.70
2018-05-05T06:46:04.297Z,13.70
2018-05-05T06:48:07.745Z,13.70
2018-05-05T06:50:11.189Z,13.70
2018-05-05T06:52:14.685Z,13.80
2018-05-05T06:54:18.906Z,13.80
2018-05-05T06:56:23.294Z,13.80
2018-05-05T06:58:26.985Z,13.80
2018-05-05T07:00:30.414Z,13.90
2018-05-05T07:02:33.876Z,14.00
2018-05-05T07:04:37.348Z,14.10
2018-05-05T07:06:40.924Z,14.10
2018-05-05T07:08:44.507Z,14.30
2018-05-05T07:10:48.745Z,14.50
2018-05-05T07:12:52.243Z,14.50
2018-05-05T07:14:56.468Z,14.90
2018-05-05T07:17:00.075Z,14.90
2018-05-05T07:19:03.565Z,15.10
2018-05-05T07:21:07.265Z,15.30
2018-05-05T07:23:10.846Z,15.40
2018-05-05T07:25:14.306Z,15.50
2018-05-05T07:27:18.561Z,15.50
2018-05-05T07:29:21.992Z,15.50
2018-05-05T07:31:25.848Z,15.60
2018-05-05T07:33:30.911Z,15.70
2018-05-05T07:35:34.389Z,15.70
2018-05-05T07:37:38.016Z,15.80
2018-05-05T07:39:42.255Z,16.00
2018-05-05T07:41:46.616Z,16.10
2018-05-05T07:43:50.258Z,16.00
2018-05-05T07:45:53.810Z,16.10
2018-05-05T07:47:57.310Z,16.20
2018-05-05T07:50:00.885Z,16.30
2018-05-05T07:52:05.080Z,16.40
2018-05-05T07:54:08.553Z,16.40
2018-05-05T07:56:12.786Z,16.60
2018-05-05T07:58:16.571Z,16.60
2018-05-05T08:00:20.084Z,16.80
2018-05-05T08:02:24.444Z,16.80
2018-05-05T08:04:27.928Z,16.80
2018-05-05T08:06:31.395Z,16.90
2018-05-05T08:08:34.955Z,16.80
2018-05-05T08:10:38.449Z,16.60
2018-05-05T08:12:42.718Z,16.50
2018-05-05T08:14:46.462Z,16.60
2018-05-05T08:16:49.969Z,16.80
2018-05-05T08:18:53.498Z,16.70
2018-05-05T08:20:56.933Z,16.70
2018-05-05T08:23:00.401Z,16.90
2018-05-05T08:25:03.849Z,17.00
2018-05-05T08:27:08.134Z,17.30
2018-05-05T08:29:11.587Z,17.20
2018-05-05T08:31:15.055Z,17.40
2018-05-05T08:33:19.293Z,17.40
2018-05-05T08:35:22.722Z,17.40
2018-05-05T08:37:26.180Z,17.60
2018-05-05T08:39:29.710Z,17.70
2018-05-05T08:41:34.111Z,17.70
2018-05-05T08:43:37.651Z,17.90
2018-05-05T08:45:41.091Z,18.20
2018-05-05T08:47:44.629Z,18.40
2018-05-05T08:49:48.215Z,18.50
2018-05-05T08:51:51.607Z,18.40
2018-05-05T08:53:55.127Z,18.40
2018-05-05T08:56:00.205Z,18.10
2018-05-05T08:58:03.902Z,18.10
2018-05-05T09:00:08.116Z,18.10
2018-05-05T09:02:11.678Z,18.10
2018-05-05T09:04:15.315Z,18.00
2018-05-05T09:06:19.590Z,18.20
2018-05-05T09:08:23.808Z,18.40
2018-05-05T09:10:30.123Z,18.50
2018-05-05T09:12:33.585Z,18.50
2018-05-05T09:14:37.130Z,18.50
2018-05-05T09:16:41.344Z,18.70
2018-05-05T09:18:45.771Z,18.60
2018-05-05T09:20:49.599Z,18.70
2018-05-05T09:22:53.094Z,18.70
2018-05-05T09:24:56.556Z,18.60
2018-05-05T09:27:01.087Z,18.70
2018-05-05T09:29:05.465Z,19.00
2018-05-05T09:31:08.918Z,18.90
2018-05-05T09:33:12.413Z,19.20
2018-05-05T09:35:16.629Z,19.10
2018-05-05T09:37:20.123Z,19.00
2018-05-05T09:39:25.259Z,19.30
2018-05-05T09:41:28.707Z,19.30
2018-05-05T09:43:32.176Z,19.40
2018-05-05T09:45:35.621Z,19.50
2018-05-05T09:47:39.129Z,19.60
2018-05-05T09:49:42.561Z,19.80
2018-05-05T09:51:46.026Z,19.90
2018-05-05T09:53:49.499Z,20.10
2018-05-05T09:55:52.968Z,20.20
2018-05-05T09:57:57.262Z,20.50
2018-05-05T10:00:00.709Z,20.40
2018-05-05T10:02:04.523Z,20.50
2018-05-05T10:04:08.161Z,20.50
2018-05-05T10:06:11.589Z,20.50
2018-05-05T10:08:15.837Z,20.50
2018-05-05T10:10:19.268Z,20.40
2018-05-05T10:12:23.525Z,20.60
2018-05-05T10:14:26.965Z,20.60
2018-05-05T10:16:30.398Z,20.70
2018-05-05T10:18:33.884Z,20.80
2018-05-05T10:20:37.352Z,20.70
2018-05-05T10:22:41.007Z,20.80
2018-05-05T10:24:44.466Z,20.80
2018-05-05T10:26:47.981Z,20.80
2018-05-05T10:28:51.438Z,20.90
2018-05-05T10:30:54.868Z,21.00
2018-05-05T10:32:58.390Z,21.20
2018-05-05T10:35:01.905Z,21.10
2018-05-05T10:37:05.425Z,21.10
2018-05-05T10:39:09.190Z,21.10
2018-05-05T10:41:13.749Z,21.40
2018-05-05T10:43:17.322Z,21.40
2018-05-05T10:45:20.842Z,21.50
2018-05-05T10:47:24.348Z,21.40
2018-05-05T10:49:28.592Z,21.30
2018-05-05T10:51:32.018Z,21.30
2018-05-05T10:53:35.599Z,21.50
2018-05-05T10:55:39.074Z,21.70
2018-05-05T10:57:42.548Z,21.80
2018-05-05T10:59:46.086Z,21.90
2018-05-05T11:01:49.625Z,22.10
2018-05-05T11:03:53.852Z,22.20
2018-05-05T11:05:58.108Z,22.20
2018-05-05T11:08:02.873Z,22.20
2018-05-05T11:10:07.089Z,22.40
2018-05-05T11:12:11.276Z,22.70
2018-05-05T11:14:15.563Z,22.70
2018-05-05T11:16:19.104Z,22.70
2018-05-05T11:18:22.531Z,22.50
2018-05-05T11:20:25.959Z,22.40
2018-05-05T11:22:29.406Z,22.40
2018-05-05T11:24:32.894Z,22.50
2018-05-05T11:26:36.380Z,22.40
2018-05-05T11:28:39.864Z,22.40
2018-05-05T11:30:44.070Z,22.20
2018-05-05T11:32:47.720Z,22.30
2018-05-05T11:34:51.259Z,22.20
2018-05-05T11:36:55.594Z,22.30
2018-05-05T11:38:59.098Z,22.60
2018-05-05T11:41:02.532Z,22.70
2018-05-05T11:43:05.998Z,22.80
2018-05-05T11:45:09.430Z,22.70
2018-05-05T11:47:12.870Z,22.50
2018-05-05T11:49:17.131Z,22.50
2018-05-05T11:51:20.743Z,22.40
2018-05-05T11:53:25.005Z,22.80
2018-05-05T11:55:28.856Z,22.80
2018-05-05T11:57:32.288Z,22.80
2018-05-05T11:59:36.571Z,22.60
2018-05-05T12:01:40.070Z,22.60
2018-05-05T12:03:43.499Z,22.80
2018-05-05T12:05:46.987Z,23.00
2018-05-05T12:07:50.463Z,23.10
2018-05-05T12:09:53.926Z,23.00
2018-05-05T12:11:57.422Z,23.00
2018-05-05T12:14:00.909Z,22.70
2018-05-05T12:16:04.548Z,22.80
2018-05-05T12:18:08.781Z,22.70
2018-05-05T12:20:12.259Z,22.70
2018-05-05T12:22:16.506Z,22.70
2018-05-05T12:24:19.979Z,22.60
2018-05-05T12:26:24.166Z,22.80
2018-05-05T12:28:28.397Z,22.90
2018-05-05T12:30:32.935Z,22.90
2018-05-05T12:32:36.359Z,22.90
2018-05-05T12:34:39.807Z,23.00
2018-05-05T12:36:44.011Z,23.00
2018-05-05T12:38:47.483Z,23.00
2018-05-05T12:40:50.908Z,23.10
2018-05-05T12:42:55.117Z,23.40
2018-05-05T12:45:00.291Z,23.40
2018-05-05T12:47:04.521Z,23.40
2018-05-05T12:49:07.996Z,23.30
2018-05-05T12:51:11.455Z,23.30
2018-05-05T12:53:15.665Z,23.30
2018-05-05T12:55:19.102Z,23.30
2018-05-05T12:57:22.541Z,23.30
2018-05-05T12:59:26.770Z,23.20
2018-05-05T13:01:30.199Z,23.20
2018-05-05T13:03:33.681Z,23.20
2018-05-05T13:05:37.146Z,23.00
2018-05-05T13:07:42.181Z,23.00
2018-05-05T13:09:46.375Z,22.90
2018-05-05T13:11:49.826Z,22.80
2018-05-05T13:13:53.303Z,23.10
2018-05-05T13:15:57.183Z,23.30
2018-05-05T13:18:00.616Z,23.30
2018-05-05T13:20:04.075Z,23.30
2018-05-05T13:22:07.507Z,23.50
2018-05-05T13:24:10.961Z,23.70
2018-05-05T13:26:14.413Z,23.80
2018-05-05T13:28:17.904Z,24.00
2018-05-05T13:30:21.337Z,23.90
2018-05-05T13:32:24.774Z,23.90
2018-05-05T13:34:28.230Z,23.70
2018-05-05T13:36:31.736Z,23.70
2018-05-05T13:38:35.221Z,23.80
2018-05-05T13:40:38.670Z,23.60
2018-05-05T13:42:42.104Z,23.30
2018-05-05T13:44:45.565Z,23.40
2018-05-05T13:46:49.089Z,23.30
2018-05-05T13:48:52.555Z,23.50
2018-05-05T13:50:55.976Z,23.70
2018-05-05T13:52:59.420Z,23.80
2018-05-05T13:55:02.884Z,23.60
2018-05-05T13:57:06.325Z,23.60
2018-05-05T13:59:09.781Z,23.50
2018-05-05T14:01:13.418Z,23.50
2018-05-05T14:03:16.847Z,23.60
2018-05-05T14:05:20.307Z,23.50
2018-05-05T14:07:23.726Z,23.70
2018-05-05T14:09:27.195Z,23.80
2018-05-05T14:11:30.627Z,23.70
2018-05-05T14:13:34.083Z,23.60
2018-05-05T14:15:37.535Z,23.50
2018-05-05T14:17:40.983Z,23.50
2018-05-05T14:19:45.231Z,23.60
2018-05-05T14:21:48.753Z,23.50
2018-05-05T14:23:52.190Z,23.50
2018-05-05T14:25:56.432Z,23.30
2018-05-05T14:27:59.885Z,23.30
2018-05-05T14:30:03.344Z,23.40
2018-05-05T14:32:06.773Z,23.30
2018-05-05T14:34:10.251Z,23.30
2018-05-05T14:36:13.700Z,23.50
2018-05-05T14:38:17.165Z,23.60
2018-05-05T14:40:21.399Z,23.70
2018-05-05T14:42:24.885Z,23.60
2018-05-05T14:44:28.307Z,23.70
2018-05-05T14:46:31.758Z,23.80
2018-05-05T14:48:35.210Z,23.80
2018-05-05T14:50:38.680Z,23.90
2018-05-05T14:52:42.109Z,23.90
2018-05-05T14:54:45.559Z,23.90
2018-05-05T14:56:49.019Z,23.80
2018-05-05T14:58:52.468Z,24.00
2018-05-05T15:00:55.944Z,24.00
2018-05-05T15:03:00.137Z,24.10
2018-05-05T15:05:04.347Z,24.20
2018-05-05T15:07:07.801Z,24.20
2018-05-05T15:09:12.202Z,24.20
2018-05-05T15:11:15.689Z,24.20
2018-05-05T15:13:19.117Z,24.20
2018-05-05T15:15:22.542Z,24.00
2018-05-05T15:17:26.025Z,24.00
2018-05-05T15:19:30.250Z,23.80
2018-05-05T15:21:33.743Z,23.80
2018-05-05T15:23:37.194Z,23.60
2018-05-05T15:25:40.620Z,23.70
2018-05-05T15:27:44.100Z,23.80
2018-05-05T15:29:48.302Z,24.10
2018-05-05T15:31:51.759Z,24.10
2018-05-05T15:33:55.186Z,24.00
2018-05-05T15:35:58.643Z,23.80
2018-05-05T15:38:02.197Z,23.80
2018-05-05T15:40:05.727Z,23.70
2018-05-05T15:42:09.221Z,23.80
2018-05-05T15:44:12.665Z,23.70
2018-05-05T15:46:16.211Z,23.70
2018-05-05T15:48:19.685Z,23.80
2018-05-05T15:50:23.868Z,23.80
2018-05-05T15:52:27.318Z,23.80
2018-05-05T15:54:31.516Z,23.90
2018-05-05T15:56:34.985Z,23.90
2018-05-05T15:58:38.517Z,23.90
2018-05-05T16:00:42.384Z,23.80
2018-05-05T16:02:46.581Z,23.80
2018-05-05T16:04:50.879Z,23.70
2018-05-05T16:06:54.324Z,23.70
2018-05-05T16:08:58.642Z,23.50
2018-05-05T16:11:02.128Z,23.50
2018-05-05T16:13:06.669Z,23.50
2018-05-05T16:15:11.345Z,23.50
2018-05-05T16:17:16.213Z,23.50
2018-05-05T16:19:19.706Z,23.50
2018-05-05T16:21:23.301Z,23.60
2018-05-05T16:23:26.737Z,23.60
2018-05-05T16:25:30.210Z,23.70
2018-05-05T16:27:33.735Z,23.50
2018-05-05T16:29:37.248Z,23.40
2018-05-05T16:31:41.449Z,23.10
2018-05-05T16:33:46.021Z,23.10
2018-05-05T16:35:49.446Z,23.10
2018-05-05T16:37:52.867Z,23.00
2018-05-05T16:39:57.084Z,22.90
2018-05-05T16:42:00.501Z,22.90
2018-05-05T16:44:04.020Z,23.00
2018-05-05T16:46:07.458Z,22.90
2018-05-05T16:48:12.051Z,22.80
2018-05-05T16:50:15.548Z,22.70
2018-05-05T16:52:19.006Z,22.60
2018-05-05T16:54:22.477Z,22.50
2018-05-05T16:56:27.880Z,22.40
2018-05-05T16:58:31.364Z,22.40
2018-05-05T17:00:34.821Z,22.40
2018-05-05T17:02:38.256Z,22.40
2018-05-05T17:04:41.717Z,22.30
2018-05-05T17:06:45.178Z,22.30
2018-05-05T17:08:48.606Z,22.30
2018-05-05T17:10:53.273Z,22.20
2018-05-05T17:12:56.696Z,22.20
2018-05-05T17:15:00.197Z,22.20
2018-05-05T17:17:03.694Z,22.20
2018-05-05T17:19:07.199Z,22.10
2018-05-05T17:21:10.639Z,22.00
2018-05-05T17:23:14.069Z,22.00
2018-05-05T17:25:17.713Z,21.90
2018-05-05T17:27:21.180Z,21.90
2018-05-05T17:29:24.685Z,21.80
2018-05-05T17:31:28.161Z,21.80
2018-05-05T17:33:31.660Z,21.80
2018-05-05T17:35:35.210Z,21.70
2018-05-05T17:37:38.642Z,21.60
2018-05-05T17:39:42.119Z,21.60
2018-05-05T17:41:46.653Z,21.60
2018-05-05T17:43:52.184Z,21.50
2018-05-05T17:45:56.079Z,21.50
2018-05-05T17:47:59.568Z,21.50
2018-05-05T17:50:03.066Z,21.40
2018-05-05T17:52:07.408Z,21.30
2018-05-05T17:54:10.906Z,21.30
2018-05-05T17:56:14.503Z,21.20
2018-05-05T17:58:18.887Z,21.20
2018-05-05T18:00:22.369Z,21.20
2018-05-05T18:02:25.808Z,21.10
2018-05-05T18:04:29.366Z,21.10
2018-05-05T18:06:32.908Z,21.00
2018-05-05T18:08:36.337Z,21.00
2018-05-05T18:10:39.825Z,21.10
2018-05-05T18:12:43.245Z,21.10
2018-05-05T18:14:47.469Z,21.10
2018-05-05T18:16:50.924Z,21.10
2018-05-05T18:18:54.358Z,21.20
2018-05-05T18:20:58.601Z,21.10
2018-05-05T18:23:02.024Z,21.10
2018-05-05T18:25:07.013Z,21.10
2018-05-05T18:27:10.667Z,21.00
2018-05-05T18:29:14.202Z,21.00
2018-05-05T18:31:17.925Z,21.00
2018-05-05T18:33:21.824Z,20.90
2018-05-05T18:35:25.593Z,20.90
2018-05-05T18:37:29.116Z,20.80
2018-05-05T18:39:32.968Z,20.70
2018-05-05T18:41:36.890Z,20.60
2018-05-05T18:43:40.578Z,20.50
2018-05-05T18:45:44.406Z,20.40
2018-05-05T18:47:48.958Z,20.30
2018-05-05T18:49:54.265Z,20.20
2018-05-05T18:51:57.696Z,20.20
2018-05-05T18:54:01.376Z,20.20
2018-05-05T18:56:05.136Z,20.10
2018-05-05T18:58:08.719Z,20.10
2018-05-05T19:00:13.977Z,20.00
2018-05-05T19:02:17.537Z,19.90
2018-05-05T19:04:21.163Z,19.90
2018-05-05T19:06:25.412Z,19.80
2018-05-05T19:08:29.016Z,19.80
2018-05-05T19:10:32.731Z,19.80
2018-05-05T19:12:36.225Z,19.90
2018-05-05T19:14:40.420Z,19.90
2018-05-05T19:16:44.192Z,19.80
2018-05-05T19:18:48.266Z,19.80
2018-05-05T19:20:51.973Z,19.70
2018-05-05T19:22:56.321Z,19.60
2018-05-05T19:24:59.807Z,19.60
2018-05-05T19:27:03.399Z,19.50
2018-05-05T19:29:06.772Z,19.40
2018-05-05T19:31:10.562Z,19.40
2018-05-05T19:33:14.021Z,19.30
2018-05-05T19:35:17.573Z,19.30
2018-05-05T19:37:21.516Z,19.30
2018-05-05T19:39:25.073Z,19.30
2018-05-05T19:41:28.597Z,19.30
2018-05-05T19:43:32.190Z,19.30
2018-05-05T19:45:36.405Z,19.30
2018-05-05T19:47:39.834Z,19.20
2018-05-05T19:49:43.405Z,19.20
2018-05-05T19:51:47.362Z,19.20
2018-05-05T19:53:51.034Z,19.20
2018-05-05T19:55:55.275Z,19.20
2018-05-05T19:57:59.310Z,19.10
2018-05-05T20:00:03.137Z,19.10
2018-05-05T20:02:06.939Z,19.10
2018-05-05T20:04:10.507Z,19.00
2018-05-05T20:06:14.089Z,19.00
2018-05-05T20:08:17.521Z,19.00
2018-05-05T20:10:21.100Z,18.90
2018-05-05T20:12:24.564Z,18.90
2018-05-05T20:14:28.001Z,18.80
2018-05-05T20:16:32.336Z,18.80
2018-05-05T20:18:35.761Z,18.80
2018-05-05T20:20:39.249Z,18.70
2018-05-05T20:22:44.223Z,18.60
2018-05-05T20:24:47.744Z,18.60
2018-05-05T20:26:51.411Z,18.60
2018-05-05T20:28:55.657Z,18.50
2018-05-05T20:30:59.122Z,18.50
2018-05-05T20:33:02.886Z,18.50
2018-05-05T20:35:06.569Z,18.40
2018-05-05T20:37:10.083Z,18.40
2018-05-05T20:39:13.602Z,18.30
2018-05-05T20:41:18.099Z,18.20
2018-05-05T20:43:22.617Z,18.20
2018-05-05T20:45:26.122Z,18.20
2018-05-05T20:47:30.901Z,18.10
2018-05-05T20:49:34.717Z,18.10
2018-05-05T20:51:38.173Z,18.00
2018-05-05T20:53:41.613Z,18.00
2018-05-05T20:55:46.188Z,17.90
2018-05-05T20:57:49.793Z,17.90
2018-05-05T20:59:53.319Z,17.90
2018-05-05T21:01:56.844Z,17.80
2018-05-05T21:04:00.606Z,17.80
2018-05-05T21:06:04.075Z,17.80
2018-05-05T21:08:07.533Z,17.70
2018-05-05T21:10:10.988Z,17.70
2018-05-05T21:12:14.513Z,17.70
2018-05-05T21:14:17.952Z,17.60
2018-05-05T21:18:31.414Z,17.60
2018-05-05T21:20:34.862Z,17.50
2018-05-05T21:22:38.392Z,17.50
2018-05-05T21:24:41.844Z,17.40
2018-05-05T21:26:45.359Z,17.30
2018-05-05T21:28:49.563Z,17.20
2018-05-05T21:30:53.057Z,17.20
2018-05-05T21:32:56.506Z,17.10
2018-05-05T21:34:59.933Z,17.10
2018-05-05T21:37:03.381Z,17.00
2018-05-05T21:39:06.829Z,17.00
2018-05-05T21:41:10.312Z,16.90
2018-05-05T21:43:13.737Z,16.90
2018-05-05T21:45:17.158Z,16.80
2018-05-05T21:47:20.642Z,16.80
2018-05-05T21:49:24.073Z,16.80
2018-05-05T21:51:27.579Z,16.70
2018-05-05T21:53:31.681Z,16.70
2018-05-05T21:55:35.108Z,16.70
2018-05-05T21:57:38.573Z,16.70
2018-05-05T21:59:43.280Z,16.60
2018-05-05T22:01:46.760Z,16.60
2018-05-05T22:03:50.174Z,16.60
2018-05-05T22:05:53.646Z,16.60
2018-05-05T22:07:57.109Z,16.50
2018-05-05T22:10:00.534Z,16.50
2018-05-05T22:12:03.996Z,16.50
2018-05-05T22:14:07.451Z,16.40
2018-05-05T22:16:10.886Z,16.30
2018-05-05T22:18:14.361Z,16.10
2018-05-05T22:20:17.816Z,15.90
2018-05-05T22:22:21.313Z,15.70
2018-05-05T22:24:24.768Z,15.70
2018-05-05T22:26:28.240Z,15.70
2018-05-05T22:28:32.426Z,15.70
2018-05-05T22:30:35.853Z,15.60
2018-05-05T22:32:40.067Z,15.50
2018-05-05T22:34:43.485Z,15.50
2018-05-05T22:36:47.739Z,15.50
2018-05-05T22:38:51.228Z,15.40
2018-05-05T22:40:54.672Z,15.40
2018-05-05T22:42:58.141Z,15.40
2018-05-05T22:45:02.333Z,15.40
2018-05-05T22:47:05.809Z,15.40
2018-05-05T22:49:12.989Z,15.30
2018-05-05T22:51:16.413Z,15.30
2018-05-05T22:53:19.995Z,15.30
2018-05-05T22:55:23.452Z,15.40
2018-05-05T22:57:27.700Z,15.40
2018-05-05T22:59:31.121Z,15.40
2018-05-05T23:01:35.362Z,15.40
2018-05-05T23:03:38.850Z,15.40
2018-05-05T23:05:43.031Z,15.40
2018-05-05T23:07:47.268Z,15.40
2018-05-05T23:09:50.693Z,15.40
2018-05-05T23:11:54.145Z,15.40
2018-05-05T23:13:58.342Z,15.40
2018-05-05T23:16:02.543Z,15.30
2018-05-05T23:18:06.775Z,15.30
2018-05-05T23:20:10.963Z,15.20
2018-05-05T23:22:14.405Z,15.20
2018-05-05T23:24:17.849Z,15.10
2018-05-05T23:26:22.101Z,14.90
2018-05-05T23:28:25.563Z,14.90
2018-05-05T23:30:29.011Z,14.90
2018-05-05T23:32:32.501Z,14.80
2018-05-05T23:34:35.919Z,14.70
2018-05-05T23:36:39.611Z,14.50
2018-05-05T23:38:43.887Z,14.40
2018-05-05T23:40:47.303Z,14.30
2018-05-05T23:42:50.765Z,14.30
2018-05-05T23:44:54.958Z,14.30
2018-05-05T23:46:59.174Z,14.40
2018-05-05T23:49:03.397Z,14.40
2018-05-05T23:51:07.613Z,14.40
2018-05-05T23:53:11.836Z,14.40
2018-05-05T23:55:15.271Z,14.40
2018-05-05T23:57:19.466Z,14.40
2018-05-05T23:59:23.651Z,14.40
